TimeMDT,TemperatureF,Dew PointF,Humidity,Sea Level PressureIn,VisibilityMPH,Wind Direction,Wind SpeedMPH,Gust SpeedMPH,PrecipitationIn,Events,Conditions,WindDirDegrees,DateUTC
12:10 AM,44.6,39.2,81,29.92,10.0,SSW,10.4,16.1,N/A,,Overcast,210,2013-05-28 06:10:00
12:30 AM,44.6,39.2,81,29.92,10.0,SW,12.7,17.3,N/A,,Overcast,230,2013-05-28 06:30:00
12:50 AM,42.8,39.2,87,29.92,10.0,SW,4.6,-,N/A,,Overcast,230,2013-05-28 06:50:00
1:10 AM,42.8,37.4,81,29.92,10.0,SW,6.9,-,N/A,,Overcast,220,2013-05-28 07:10:00
1:30 AM,41.0,37.4,87,29.91,10.0,SW,11.5,-,N/A,Rain,Light Rain,220,2013-05-28 07:30:00
1:50 AM,41.0,35.6,81,29.90,10.0,SSW,6.9,-,N/A,,Mostly Cloudy,200,2013-05-28 07:50:00
2:10 AM,39.2,35.6,87,29.90,10.0,South,4.6,-,N/A,,Overcast,190,2013-05-28 08:10:00
2:30 AM,39.2,35.6,87,29.89,10.0,SSE,3.5,-,N/A,,Overcast,160,2013-05-28 08:30:00
2:50 AM,39.2,35.6,87,29.89,10.0,South,3.5,-,N/A,,Mostly Cloudy,190,2013-05-28 08:50:00
3:10 AM,39.2,35.6,87,29.89,10.0,SW,5.8,-,N/A,,Overcast,220,2013-05-28 09:10:00
3:30 AM,39.2,35.6,87,29.88,10.0,SSW,3.5,-,N/A,,Overcast,210,2013-05-28 09:30:00
3:50 AM,39.2,35.6,87,29.88,10.0,South,5.8,-,N/A,,Overcast,170,2013-05-28 09:50:00
4:10 AM,39.2,35.6,87,29.87,10.0,Calm,Calm,-,N/A,,Overcast,0,2013-05-28 10:10:00
4:30 AM,39.2,35.6,87,29.87,10.0,Calm,Calm,-,N/A,,Overcast,0,2013-05-28 10:30:00
4:50 AM,39.2,35.6,87,29.87,10.0,Calm,Calm,-,N/A,,Overcast,0,2013-05-28 10:50:00
5:10 AM,39.2,35.6,87,29.86,10.0,Calm,Calm,-,N/A,,Overcast,0,2013-05-28 11:10:00
5:30 AM,39.2,35.6,87,29.85,10.0,Calm,Calm,-,N/A,,Overcast,0,2013-05-28 11:30:00
5:50 AM,39.2,33.8,81,29.84,10.0,Calm,Calm,-,N/A,,Overcast,0,2013-05-28 11:50:00
6:10 AM,39.2,33.8,81,29.84,10.0,Calm,Calm,-,N/A,,Overcast,0,2013-05-28 12:10:00
6:30 AM,39.2,33.8,81,29.84,10.0,Calm,Calm,-,N/A,,Overcast,0,2013-05-28 12:30:00
6:50 AM,39.2,35.6,87,29.84,10.0,Calm,Calm,-,N/A,,Overcast,0,2013-05-28 12:50:00
7:10 AM,39.2,35.6,87,29.84,10.0,Calm,Calm,-,N/A,,Overcast,0,2013-05-28 13:10:00
7:30 AM,39.2,35.6,87,29.83,10.0,Calm,Calm,-,N/A,,Overcast,0,2013-05-28 13:30:00
7:50 AM,39.2,35.6,87,29.83,10.0,NE,3.5,-,N/A,,Overcast,40,2013-05-28 13:50:00
8:10 AM,39.2,35.6,87,29.83,10.0,NNW,3.5,-,N/A,,Overcast,330,2013-05-28 14:10:00
8:30 AM,39.2,35.6,87,29.83,10.0,Calm,Calm,-,N/A,,Overcast,0,2013-05-28 14:30:00
8:50 AM,41.0,37.4,87,29.83,10.0,NNW,3.5,-,N/A,,Overcast,340,2013-05-28 14:50:00
9:10 AM,41.0,37.4,87,29.83,10.0,Calm,Calm,-,N/A,,Overcast,0,2013-05-28 15:10:00
9:30 AM,42.8,39.2,87,29.82,10.0,SW,6.9,-,N/A,,Overcast,230,2013-05-28 15:30:00
9:50 AM,44.6,39.2,81,29.82,10.0,SSW,6.9,-,N/A,,Overcast,210,2013-05-28 15:50:00
10:10 AM,44.6,39.2,81,29.82,10.0,WSW,5.8,-,N/A,,Overcast,240,2013-05-28 16:10:00
10:30 AM,44.6,39.2,81,29.82,10.0,WNW,3.5,-,N/A,,Overcast,290,2013-05-28 16:30:00
10:50 AM,44.6,39.2,81,29.81,10.0,Calm,Calm,-,N/A,,Overcast,0,2013-05-28 16:50:00
11:10 AM,46.4,41.0,81,29.82,10.0,SW,6.9,-,N/A,,Overcast,220,2013-05-28 17:10:00
11:30 AM,46.4,41.0,81,29.81,10.0,WNW,4.6,-,N/A,,Overcast,300,2013-05-28 17:30:00
11:50 AM,46.4,41.0,81,29.81,10.0,Calm,Calm,-,N/A,,Overcast,0,2013-05-28 17:50:00
12:10 PM,46.4,42.8,87,29.81,10.0,NW,4.6,-,N/A,,Overcast,320,2013-05-28 18:10:00
12:30 PM,48.2,44.6,87,29.81,10.0,NW,6.9,-,N/A,,Overcast,310,2013-05-28 18:30:00
12:50 PM,48.2,44.6,87,29.80,10.0,WNW,3.5,-,N/A,,Overcast,290,2013-05-28 18:50:00
1:10 PM,48.2,44.6,87,29.80,10.0,NNE,4.6,-,N/A,,Overcast,30,2013-05-28 19:10:00
1:30 PM,48.2,44.6,87,29.80,10.0,ENE,8.1,-,N/A,,Overcast,60,2013-05-28 19:30:00
1:50 PM,50.0,46.4,87,29.79,10.0,NE,4.6,-,N/A,,Mostly Cloudy,50,2013-05-28 19:50:00
2:10 PM,50.0,46.4,87,29.79,10.0,Calm,Calm,-,N/A,,Mostly Cloudy,0,2013-05-28 20:10:00
2:30 PM,53.6,48.2,82,29.79,10.0,West,4.6,-,N/A,,Overcast,280,2013-05-28 20:30:00
2:50 PM,53.6,48.2,82,29.78,10.0,South,4.6,-,N/A,,Mostly Cloudy,190,2013-05-28 20:50:00
3:10 PM,51.8,48.2,88,29.78,10.0,WNW,3.5,-,N/A,,Overcast,290,2013-05-28 21:10:00
3:30 PM,51.8,48.2,88,29.79,10.0,SSW,12.7,-,N/A,,Overcast,210,2013-05-28 21:30:00
3:50 PM,50.0,46.4,87,29.79,10.0,South,8.1,-,N/A,Rain,Light Rain,180,2013-05-28 21:50:00
4:10 PM,50.0,46.4,87,29.79,10.0,SW,10.4,-,N/A,,Mostly Cloudy,220,2013-05-28 22:10:00
4:30 PM,48.2,42.8,82,29.80,10.0,SSW,13.8,21.9,N/A,,Mostly Cloudy,210,2013-05-28 22:30:00
4:50 PM,46.4,42.8,87,29.80,10.0,SSW,18.4,24.2,N/A,,Partly Cloudy,210,2013-05-28 22:50:00
5:10 PM,48.2,44.6,87,29.81,10.0,SSW,12.7,18.4,N/A,,Clear,200,2013-05-28 23:10:00
5:30 PM,48.2,42.8,82,29.81,10.0,SSW,11.5,19.6,N/A,,Partly Cloudy,210,2013-05-28 23:30:00
5:50 PM,48.2,44.6,87,29.81,10.0,SW,12.7,-,N/A,,Clear,220,2013-05-28 23:50:00
6:10 PM,48.2,44.6,87,29.81,10.0,SW,10.4,-,N/A,,Partly Cloudy,220,2013-05-29 00:10:00
6:30 PM,48.2,42.8,82,29.81,10.0,SW,6.9,-,N/A,,Partly Cloudy,230,2013-05-29 00:30:00
6:50 PM,46.4,42.8,87,29.82,10.0,SW,5.8,-,N/A,,Partly Cloudy,230,2013-05-29 00:50:00
7:10 PM,46.4,41.0,81,29.82,10.0,SW,9.2,-,N/A,,Partly Cloudy,230,2013-05-29 01:10:00
7:30 PM,44.6,41.0,87,29.82,10.0,SW,6.9,-,N/A,,Mostly Cloudy,230,2013-05-29 01:30:00
7:50 PM,44.6,39.2,81,29.83,10.0,SW,5.8,-,N/A,,Overcast,220,2013-05-29 01:50:00
8:10 PM,44.6,41.0,87,29.83,10.0,SSW,6.9,-,N/A,,Overcast,210,2013-05-29 02:10:00
8:30 PM,44.6,39.2,81,29.83,10.0,SW,5.8,-,N/A,,Overcast,220,2013-05-29 02:30:00
8:50 PM,42.8,39.2,87,29.83,10.0,WSW,4.6,-,N/A,,Overcast,250,2013-05-29 02:50:00
9:10 PM,41.0,37.4,87,29.83,10.0,WSW,4.6,-,N/A,,Overcast,250,2013-05-29 03:10:00
9:30 PM,41.0,37.4,87,29.84,10.0,SW,4.6,-,N/A,,Overcast,220,2013-05-29 03:30:00
9:50 PM,41.0,37.4,87,29.84,10.0,SW,4.6,-,N/A,,Overcast,220,2013-05-29 03:50:00
10:10 PM,41.0,35.6,81,29.84,10.0,SSW,6.9,-,N/A,,Overcast,210,2013-05-29 04:10:00
10:30 PM,41.0,35.6,81,29.85,10.0,SW,5.8,-,N/A,,Overcast,220,2013-05-29 04:30:00
10:50 PM,41.0,35.6,81,29.85,10.0,SW,4.6,-,N/A,,Overcast,230,2013-05-29 04:50:00
11:10 PM,41.0,35.6,81,29.84,10.0,Calm,Calm,-,N/A,,Overcast,0,2013-05-29 05:10:00
11:30 PM,39.2,35.6,87,29.84,10.0,Calm,Calm,-,N/A,,Overcast,0,2013-05-29 05:30:00
11:50 PM,39.2,35.6,87,29.84,10.0,SSW,3.5,-,N/A,,Overcast,210,2013-05-29 05:50:00